Time;durP1;ratioP1;P1;durP2;ratioP2;P2;SDS_P1;SDS_P2;PMS_P1;PMS_P2;Temp;Humidity;BMP_temperature;BMP_pressure;BME280_temperature;BME280_humidity;BME280_pressure;Samples;Min_cycle;Max_cycle;Signal;HPM_P1;HPM_P2
2021/03/25 09:44:09;;;;;;;9.68;5.05;;;23.00;61.10;;;;;;6120184;29;20086;-77
2021/03/25 09:51:29;;;;;;;8.82;5.65;;;23.30;69.90;;;;;;6101006;29;20040;-79
2021/03/25 09:54:29;;;;;;;;;;;23.10;41.50;;;;;;6085522;29;20479;-76
2021/03/25 09:57:30;;;;;;;8.02;5.53;;;23.40;71.10;;;;;;6084115;29;19917;-78
2021/03/25 10:00:43;;;;;;;8.25;5.93;;;22.50;71.70;;;;;;6101955;29;20087;-78
2021/03/25 10:03:56;;;;;;;10.95;6.07;;;22.00;72.80;;;;;;6101311;29;20059;-81
2021/03/25 10:07:00;;;;;;;10.38;5.82;;;21.80;43.90;;;;;;6084921;29;20119;-80
2021/03/25 10:10:05;;;;;;;9.32;6.03;;;21.60;46.00;;;;;;6083114;29;20032;-81
2021/03/25 10:13:06;;;;;;;10.70;6.97;;;21.70;46.50;;;;;;6082959;29;20028;-80
2021/03/25 10:16:30;;;;;;;11.00;6.87;;;21.50;44.90;;;;;;6080823;29;20047;-80
2021/03/25 10:19:45;;;;;;;9.50;6.78;;;21.30;46.40;;;;;;6098997;29;20059;-81
2021/03/25 10:22:46;;;;;;;9.48;6.65;;;;;;;;;;6066341;29;20060;-80
2021/03/25 10:25:50;;;;;;;8.95;6.32;;;21.40;57.20;;;;;;6068271;29;20071;-81
2021/03/25 10:29:11;;;;;;;7.95;6.25;;;21.90;75.30;;;;;;6068983;29;20871;-80
2021/03/25 10:32:19;;;;;;;11.30;7.00;;;21.80;46.10;;;;;;6087458;29;20112;-78
2021/03/25 10:35:23;;;;;;;11.27;7.68;;;22.20;43.70;;;;;;6083899;29;20071;-78
2021/03/25 10:38:28;;;;;;;14.07;8.25;;;22.50;43.30;;;;;;6068087;29;20036;-77
2021/03/25 10:41:35;;;;;;;13.35;8.40;;;22.40;42.20;;;;;;6083488;29;20051;-78
2021/03/25 10:44:35;;;;;;;11.93;7.50;;;22.10;41.30;;;;;;6088605;29;20491;-80
2021/03/25 10:47:36;;;;;;;14.48;9.18;;;21.80;43.40;;;;;;6107034;29;20042;-77
2021/03/25 10:50:49;;;;;;;13.18;8.57;;;21.70;44.20;;;;;;6106783;29;20435;-78
2021/03/25 10:53:49;;;;;;;13.35;8.13;;;21.50;45.00;;;;;;6077070;29;20040;-78
2021/03/25 10:56:56;;;;;;;14.43;8.98;;;21.50;45.20;;;;;;6124175;29;20421;-80
2021/03/25 11:00:04;;;;;;;19.83;8.60;;;21.30;44.50;;;;;;6091140;29;20031;-78
2021/03/25 11:03:34;;;;;;;13.52;9.05;;;21.50;45.10;;;;;;6090959;29;20114;-78
2021/03/25 11:06:35;;;;;;;17.63;9.88;;;21.70;44.30;;;;;;6106836;29;20395;-81
2021/03/25 11:09:36;;;;;;;13.73;8.60;;;21.70;43.30;;;;;;6090965;29;20028;-78
2021/03/25 11:12:37;;;;;;;18.35;8.77;;;21.60;44.10;;;;;;6091051;29;20525;-77
2021/03/25 11:15:43;;;;;;;12.73;8.15;;;21.50;44.00;;;;;;6091135;29;20542;-79
2021/03/25 11:18:45;;;;;;;13.57;8.02;;;21.30;44.70;;;;;;6090663;29;20152;-79
2021/03/25 11:21:46;;;;;;;12.55;7.97;;;21.40;45.80;;;;;;6107102;29;20046;-78
2021/03/25 11:24:47;;;;;;;15.30;8.35;;;21.50;45.80;;;;;;6074934;29;20040;-78
2021/03/25 11:27:47;;;;;;;13.85;8.15;;;21.20;74.00;;;;;;6075063;29;20374;-78
2021/03/25 11:30:53;;;;;;;15.57;8.77;;;21.50;73.50;;;;;;6090464;29;20039;-78
2021/03/25 11:33:54;;;;;;;13.23;7.97;;;21.60;44.50;;;;;;6090635;29;20423;-78
2021/03/25 11:36:54;;;;;;;17.75;9.50;;;22.00;61.70;;;;;;6090307;29;20028;-78
2021/03/25 11:40:15;;;;;;;13.63;7.78;;;22.00;46.00;;;;;;6106093;29;20066;-78
2021/03/25 11:43:20;;;;;;;14.60;8.95;;;21.90;43.30;;;;;;6106458;29;20031;-79
2021/03/25 11:46:43;;;;;;;13.27;8.35;;;21.50;61.00;;;;;;6082445;29;20406;-78
2021/03/25 11:49:44;;;;;;;16.95;9.50;;;21.50;57.80;;;;;;6098333;29;20032;-78
2021/03/25 11:52:51;;;;;;;18.92;8.93;;;21.20;45.40;;;;;;6098061;29;20060;-78
2021/03/25 11:55:52;;;;;;;13.45;8.35;;;21.00;47.00;;;;;;6082769;29;20440;-78
2021/03/25 11:58:56;;;;;;;14.70;7.88;;;20.90;46.60;;;;;;6097909;29;20036;-78
2021/03/25 12:02:22;;;;;;;12.70;7.75;;;20.80;46.10;;;;;;6098053;29;20091;-79
2021/03/25 12:05:22;;;;;;;16.15;9.30;;;20.80;46.30;;;;;;6099403;29;20033;-78
2021/03/25 12:08:29;;;;;;;14.95;8.45;;;20.70;47.10;;;;;;6098069;29;20032;-77
2021/03/25 12:11:46;;;;;;;14.82;8.45;;;20.50;64.20;;;;;;6066809;29;20043;-78
2021/03/25 12:14:47;;;;;;;14.73;8.75;;;20.30;47.40;;;;;;6080580;29;20083;-77
2021/03/25 12:17:59;;;;;;;13.93;8.15;;;20.40;46.20;;;;;;6082355;29;20611;-77
2021/03/25 12:21:09;;;;;;;12.43;7.72;;;20.10;47.30;;;;;;6097998;29;20055;-78
2021/03/25 12:24:10;;;;;;;13.35;7.90;;;20.10;48.30;;;;;;6081935;29;20375;-77
2021/03/25 12:27:16;;;;;;;17.58;8.63;;;20.00;48.50;;;;;;6097475;29;20036;-77
2021/03/25 12:30:17;;;;;;;16.75;8.50;;;19.90;47.60;;;;;;6081756;29;20032;-78
2021/03/25 12:33:29;;;;;;;14.40;8.87;;;19.50;47.90;;;;;;6097135;29;20036;-76
2021/03/25 12:36:30;;;;;;;12.63;7.65;;;19.90;46.00;;;;;;6097841;29;20322;-77
2021/03/25 12:39:31;;;;;;;12.23;7.82;;;20.00;48.80;;;;;;6098377;29;20067;-76
2021/03/25 12:42:31;;;;;;;14.40;7.47;;;19.90;47.70;;;;;;6070423;29;20490;-77
2021/03/25 12:45:38;;;;;;;12.15;7.45;;;19.30;48.90;;;;;;6086465;29;20074;-77
2021/03/25 12:48:39;;;;;;;12.20;7.43;;;18.90;47.60;;;;;;6085617;29;20032;-76
2021/03/25 12:51:39;;;;;;;11.13;7.35;;;18.90;49.00;;;;;;6101944;29;20084;-78
2021/03/25 12:54:40;;;;;;;13.23;7.45;;;18.70;49.20;;;;;;6102392;29;20048;-76
2021/03/25 12:57:41;;;;;;;10.20;7.40;;;19.00;49.60;;;;;;6101666;29;20140;-78
2021/03/25 13:00:41;;;;;;;12.23;6.82;;;18.80;76.00;;;;;;6070349;29;20028;-77
2021/03/25 13:03:42;;;;;;;9.88;6.57;;;18.90;76.70;;;;;;6085911;29;20032;-77
2021/03/25 13:06:43;;;;;;;10.10;6.38;;;19.00;59.70;;;;;;6085996;29;20105;-77
2021/03/25 13:09:43;;;;;;;7.45;5.38;;;18.50;58.80;;;;;;6102687;29;20126;-77
2021/03/25 13:12:44;;;;;;;10.55;6.82;;;19.00;60.40;;;;;;6086116;29;20032;-77
2021/03/25 13:15:44;;;;;;;9.25;5.75;;;19.00;60.20;;;;;;6102545;29;20970;-77
2021/03/25 13:18:45;;;;;;;9.13;5.82;;;19.00;48.80;;;;;;6102800;29;20032;-77
2021/03/25 13:21:46;;;;;;;11.68;6.18;;;19.10;47.00;;;;;;6102462;29;20028;-77
2021/03/25 13:24:47;;;;;;;8.73;5.65;;;19.30;46.20;;;;;;6101322;29;20032;-77
2021/03/25 13:27:48;;;;;;;8.52;5.80;;;19.30;45.60;;;;;;6085584;29;20079;-77
2021/03/25 13:30:49;;;;;;;7.38;5.13;;;19.50;45.70;;;;;;6085669;29;20431;-77
2021/03/25 13:33:50;;;;;;;10.43;6.45;;;19.80;45.90;;;;;;6101133;29;20044;-77
2021/03/25 13:36:50;;;;;;;13.32;7.32;;;20.00;45.50;;;;;;6084902;29;20051;-77
2021/03/25 13:39:51;;;;;;;9.40;6.43;;;20.20;45.50;;;;;;6100849;29;20427;-77
2021/03/25 13:42:51;;;;;;;10.02;6.63;;;20.00;42.80;;;;;;6101005;29;20083;-77
2021/03/25 13:45:52;;;;;;;9.75;6.10;;;19.90;43.00;;;;;;6093657;29;20751;-77
2021/03/25 13:48:53;;;;;;;9.30;5.53;;;20.10;45.00;;;;;;6065630;29;20036;-77
2021/03/25 13:51:53;;;;;;;8.32;5.78;;;20.10;42.60;;;;;;6101625;29;20032;-78
2021/03/25 13:54:54;;;;;;;12.10;6.70;;;20.50;42.90;;;;;;6069007;29;20477;-77
2021/03/25 13:57:55;;;;;;;10.48;6.72;;;20.40;43.40;;;;;;6084748;29;20036;-77
2021/03/25 14:00:56;;;;;;;11.90;6.80;;;20.00;44.70;;;;;;6060518;29;20036;-77
2021/03/25 14:03:56;;;;;;;9.95;5.90;;;19.70;44.10;;;;;;6069218;29;20036;-77
2021/03/25 14:06:57;;;;;;;8.50;5.82;;;19.50;44.90;;;;;;6072538;29;20451;-77
2021/03/25 14:09:58;;;;;;;8.02;5.53;;;19.50;45.40;;;;;;6058633;29;20039;-77
2021/03/25 14:12:59;;;;;;;11.43;6.13;;;19.40;44.40;;;;;;6080600;29;20554;-78
2021/03/25 14:16:00;;;;;;;8.13;6.33;;;19.20;45.20;;;;;;6084230;29;20043;-77
2021/03/25 14:19:00;;;;;;;9.02;6.68;;;19.10;45.30;;;;;;6101821;29;20036;-77
2021/03/25 14:22:01;;;;;;;9.77;7.18;;;19.10;45.30;;;;;;6068653;29;20083;-77
2021/03/25 14:25:02;;;;;;;9.75;7.15;;;19.10;46.30;;;;;;6101451;29;20028;-77
2021/03/25 14:28:03;;;;;;;11.18;6.75;;;19.20;47.20;;;;;;6101735;29;20123;-76
2021/03/25 14:31:04;;;;;;;8.05;6.15;;;19.20;45.50;;;;;;6076833;29;20040;-77
2021/03/25 14:34:04;;;;;;;9.68;6.28;;;19.30;47.10;;;;;;6100811;29;20427;-76
2021/03/25 14:37:07;;;;;;;9.10;6.72;;;19.20;60.30;;;;;;6078752;29;20036;-77
2021/03/25 14:40:07;;;;;;;;;;;19.20;45.10;;;;;;6084484;29;20066;-77
2021/03/25 14:43:08;;;;;;;9.73;6.93;;;19.20;45.50;;;;;;6083506;29;20373;-77
2021/03/25 14:46:09;;;;;;;11.55;7.22;;;19.20;45.80;;;;;;6083474;29;20056;-77
2021/03/25 14:49:09;;;;;;;10.18;6.97;;;19.10;43.20;;;;;;6100402;29;20047;-77
2021/03/25 14:52:10;;;;;;;8.85;6.43;;;18.90;46.40;;;;;;6100576;29;20032;-76
2021/03/25 14:55:11;;;;;;;8.98;6.57;;;18.80;45.80;;;;;;6065891;29;20040;-77
2021/03/25 14:58:12;;;;;;;12.18;7.32;;;19.00;45.70;;;;;;6083684;29;20087;-77
2021/03/25 15:01:13;;;;;;;12.50;7.30;;;19.20;47.50;;;;;;6074993;29;20111;-77
2021/03/25 15:04:13;;;;;;;13.45;8.23;;;19.30;46.70;;;;;;6071201;29;20387;-77
2021/03/25 15:07:14;;;;;;;11.55;7.88;;;19.30;47.90;;;;;;6100092;29;20364;-78
2021/03/25 15:10:19;;;;;;;12.88;6.90;;;18.60;43.90;;;;;;6083183;29;20376;-77
2021/03/25 15:13:20;;;;;;;11.35;7.15;;;18.20;47.70;;;;;;6062142;29;20110;-77
2021/03/25 15:16:20;;;;;;;9.55;6.43;;;18.10;49.80;;;;;;6067188;29;20046;-76
2021/03/25 15:19:21;;;;;;;11.65;7.15;;;17.50;65.50;;;;;;6099605;29;20460;-78
2021/03/25 15:22:22;;;;;;;8.95;6.18;;;17.50;48.70;;;;;;6062105;29;20073;-79
2021/03/25 15:25:26;;;;;;;8.48;6.05;;;17.60;48.90;;;;;;6066732;29;20035;-79
2021/03/25 15:28:28;;;;;;;10.15;6.95;;;17.70;48.70;;;;;;6052244;29;20032;-78
2021/03/25 15:31:29;;;;;;;7.78;5.90;;;17.80;49.90;;;;;;6071433;29;20040;-79
2021/03/25 15:34:30;;;;;;;9.10;6.30;;;18.10;49.50;;;;;;6066825;29;20047;-80
2021/03/25 15:37:30;;;;;;;8.75;6.40;;;18.10;48.20;;;;;;6066938;29;20494;-79
2021/03/25 15:40:31;;;;;;;8.52;6.20;;;18.10;47.90;;;;;;6082347;29;20095;-79
2021/03/25 15:43:31;;;;;;;9.10;6.00;;;17.90;63.30;;;;;;6066204;29;20121;-85
2021/03/25 15:46:33;;;;;;;8.07;6.10;;;;;;;;;;6053395;29;20056;-85
2021/03/25 15:49:33;;;;;;;9.15;6.43;;;17.90;44.90;;;;;;6064508;29;20063;-83
2021/03/25 15:52:34;;;;;;;7.55;5.43;;;17.80;48.70;;;;;;6050651;29;20799;-84
2021/03/25 15:55:35;;;;;;;9.82;6.28;;;17.70;48.20;;;;;;6065762;29;20044;-83
2021/03/25 15:58:36;;;;;;;9.57;6.78;;;17.40;62.80;;;;;;6073087;29;20028;-83
2021/03/25 16:01:37;;;;;;;10.23;6.47;;;17.50;76.00;;;;;;6066936;29;20387;-85
2021/03/25 16:04:38;;;;;;;8.07;5.80;;;16.60;75.30;;;;;;6050833;29;20051;-83
2021/03/25 16:07:38;;;;;;;8.98;5.75;;;16.50;75.70;;;;;;6051211;29;20035;-82
2021/03/25 16:10:39;;;;;;;13.18;6.07;;;16.50;76.30;;;;;;6082015;29;20040;-82
2021/03/25 16:13:40;;;;;;;11.18;6.03;;;16.80;78.60;;;;;;6066203;29;20083;-87
2021/03/25 16:16:41;;;;;;;8.57;6.32;;;;;;;;;;6050962;29;20406;-88
2021/03/25 16:19:42;;;;;;;10.73;5.72;;;;;;;;;;6057680;29;20436;-86
2021/03/25 16:22:42;;;;;;;8.90;6.10;;;16.60;76.80;;;;;;6060424;29;20044;-83
2021/03/25 16:25:43;;;;;;;10.25;5.88;;;16.50;77.00;;;;;;6066690;29;20032;-84
2021/03/25 16:28:44;;;;;;;8.65;5.45;;;;;;;;;;6066652;29;20491;-85
2021/03/25 16:31:45;;;;;;;7.97;5.68;;;;;;;;;;6081850;29;20032;-89
2021/03/25 16:34:46;;;;;;;6.95;5.60;;;;;;;;;;6054436;29;20476;-85
2021/03/25 16:37:47;;;;;;;8.27;5.57;;;;;;;;;;6066234;29;20028;-83
2021/03/25 16:40:49;;;;;;;7.22;5.05;;;;;;;;;;6081620;29;20036;-83
2021/03/25 16:43:52;;;;;;;7.97;5.22;;;15.70;57.70;;;;;;6065886;29;20399;-85
2021/03/25 16:46:53;;;;;;;8.48;5.65;;;;;;;;;;6072238;29;20414;-84
2021/03/25 16:49:54;;;;;;;5.80;4.72;;;15.40;61.90;;;;;;6082109;29;20107;-84
2021/03/25 16:52:55;;;;;;;7.25;5.43;;;15.50;52.40;;;;;;6051121;29;20034;-82
2021/03/25 16:55:56;;;;;;;12.02;5.75;;;15.30;53.70;;;;;;6059069;29;20040;-84
2021/03/25 16:58:56;;;;;;;9.75;5.88;;;15.20;52.90;;;;;;6061421;29;20074;-83
2021/03/25 17:01:57;;;;;;;8.85;5.65;;;;;;;;;;6069520;29;20036;-83
2021/03/25 17:04:58;;;;;;;7.47;5.25;;;15.10;48.30;;;;;;6069461;29;20028;-83
2021/03/25 17:07:59;;;;;;;12.00;6.30;;;;;;;;;;6057029;29;20069;-84
2021/03/25 17:11:02;;;;;;;9.70;7.30;;;15.00;68.70;;;;;;6080398;29;20508;-79
2021/03/25 17:14:03;;;;;;;12.13;6.80;;;14.70;68.20;;;;;;6067989;29;20059;-80
2021/03/25 17:17:03;;;;;;;11.40;6.80;;;14.40;68.10;;;;;;6104209;29;20040;-79
2021/03/25 17:20:20;;;;;;;12.15;7.68;;;14.50;52.50;;;;;;6110231;29;20734;-78
2021/03/25 17:23:22;;;;;;;10.40;6.38;;;14.40;52.90;;;;;;6066345;29;20536;-83
2021/03/25 17:26:25;;;;;;;9.45;6.45;;;14.30;53.00;;;;;;6069684;29;20040;-83
2021/03/25 17:29:26;;;;;;;12.02;7.95;;;14.30;53.70;;;;;;6075752;29;20037;-83
2021/03/25 17:32:48;;;;;;;10.50;7.65;;;14.20;69.20;;;;;;6107766;29;20044;-82
2021/03/25 17:39:46;;;;;;;10.10;6.10;;;16.80;53.10;;;;;;6111820;29;20039;-87
2021/03/25 17:42:47;;;;;;;9.88;6.00;;;14.10;55.80;;;;;;6065421;29;20137;-90
2021/03/25 17:45:48;;;;;;;6.75;5.22;;;14.00;54.20;;;;;;6067360;29;20059;-87
2021/03/25 17:48:48;;;;;;;9.95;6.28;;;13.90;54.30;;;;;;6077941;29;20034;-87
2021/03/25 17:51:50;;;;;;;8.27;5.15;;;;;;;;;;6078135;29;20031;-88
2021/03/25 17:54:53;;;;;;;12.13;6.90;;;13.80;53.00;;;;;;6108758;29;20443;-87
2021/03/25 17:58:09;;;;;;;11.48;6.38;;;13.60;55.60;;;;;;6082861;29;20032;-87
2021/03/25 18:01:10;;;;;;;6.55;4.93;;;13.60;56.80;;;;;;6080229;29;20035;-84
2021/03/25 18:04:11;;;;;;;9.63;7.05;;;13.60;56.80;;;;;;6077208;29;20501;-81
2021/03/25 18:07:12;;;;;;;8.77;5.85;;;13.50;55.80;;;;;;6109173;29;20040;-84
2021/03/25 18:10:13;;;;;;;12.82;6.05;;;13.40;56.10;;;;;;6093140;29;20032;-86
2021/03/25 18:13:30;;;;;;;28.90;18.50;;;13.40;56.50;;;;;;6077481;29;20036;-87
2021/03/25 18:16:31;;;;;;;8.18;5.65;;;13.30;55.60;;;;;;6094723;29;20039;-83
2021/03/25 18:19:32;;;;;;;8.48;4.75;;;13.10;57.20;;;;;;6076648;29;20034;-86
2021/03/25 18:22:32;;;;;;;7.53;5.15;;;13.40;58.20;;;;;;6077149;29;20058;-88
2021/03/25 18:25:38;;;;;;;6.57;4.80;;;12.90;59.00;;;;;;6076965;29;20470;-88
2021/03/25 18:28:39;;;;;;;6.40;5.03;;;12.70;58.70;;;;;;6078426;29;20442;-84
2021/03/25 18:31:40;;;;;;;8.13;5.28;;;12.50;71.70;;;;;;6102447;29;20042;-82
2021/03/25 18:34:41;;;;;;;10.50;7.65;;;12.20;76.30;;;;;;6082427;29;20042;-82
2021/03/25 18:37:42;;;;;;;8.75;5.30;;;;;;;;;;6075754;29;20027;-85
2021/03/25 18:40:42;;;;;;;29.00;19.45;;;12.20;57.10;;;;;;6091585;29;20071;-85
2021/03/25 18:43:43;;;;;;;9.68;5.22;;;12.10;61.00;;;;;;6076381;29;20059;-82
2021/03/25 18:46:44;;;;;;;8.52;5.05;;;12.10;60.80;;;;;;6067641;29;20139;-83
2021/03/25 18:49:44;;;;;;;7.18;4.78;;;12.20;62.10;;;;;;6068203;29;20032;-84
2021/03/25 18:52:45;;;;;;;8.15;5.13;;;11.90;78.60;;;;;;6068291;29;20043;-84
2021/03/25 18:55:46;;;;;;;5.88;4.97;;;11.90;62.00;;;;;;6068629;29;20047;-85
2021/03/25 18:58:47;;;;;;;10.30;5.97;;;;;;;;;;6067054;29;20028;-84
2021/03/25 19:01:48;;;;;;;7.68;5.07;;;;;;;;;;6083418;29;20128;-86
2021/03/25 19:04:48;;;;;;;7.00;5.53;;;11.60;61.90;;;;;;6099286;29;20036;-86
2021/03/25 19:07:51;;;;;;;10.65;5.55;;;11.40;67.20;;;;;;6067517;29;20486;-83
2021/03/25 19:10:52;;;;;;;7.20;5.10;;;11.60;66.90;;;;;;6067967;29;20490;-84
2021/03/25 19:13:54;;;;;;;12.23;6.93;;;11.20;67.30;;;;;;6065803;29;20040;-84
2021/03/25 19:16:55;;;;;;;7.95;5.50;;;11.30;68.30;;;;;;6082979;29;20047;-85
2021/03/25 19:19:56;;;;;;;7.30;5.10;;;11.10;69.40;;;;;;6067294;29;20475;-84
2021/03/25 19:22:57;;;;;;;7.32;5.55;;;10.90;83.10;;;;;;6082184;29;20032;-83
2021/03/25 19:25:57;;;;;;;8.38;6.53;;;10.80;70.50;;;;;;6082604;29;20035;-84
2021/03/25 19:28:58;;;;;;;9.43;5.82;;;10.90;71.00;;;;;;6066902;29;20039;-83
2021/03/25 19:31:58;;;;;;;9.80;6.55;;;10.60;71.40;;;;;;6065842;29;20033;-81
2021/03/25 19:34:59;;;;;;;9.55;6.32;;;10.50;84.30;;;;;;6098976;29;20049;-77
2021/03/25 19:38:00;;;;;;;9.18;6.10;;;10.40;72.10;;;;;;6099101;29;20043;-77
2021/03/25 19:41:04;;;;;;;8.40;5.95;;;10.40;72.40;;;;;;6081240;29;20079;-77
2021/03/25 19:44:05;;;;;;;8.35;6.82;;;10.20;73.40;;;;;;6098182;29;20050;-76
2021/03/25 19:47:06;;;;;;;8.50;6.93;;;9.90;73.60;;;;;;6103229;29;20032;-76
2021/03/25 19:50:07;;;;;;;13.60;7.03;;;10.00;75.50;;;;;;6122173;29;20099;-76
2021/03/25 19:53:08;;;;;;;10.70;6.57;;;9.90;77.10;;;;;;6103845;29;20067;-76
2021/03/25 19:56:09;;;;;;;8.25;5.68;;;9.70;97.50;;;;;;6104101;29;20773;-77
2021/03/25 19:59:09;;;;;;;9.75;6.82;;;9.60;97.50;;;;;;6104233;29;20024;-76
2021/03/25 20:02:13;;;;;;;24.60;11.63;;;9.50;98.00;;;;;;6120966;29;20099;-77
2021/03/25 20:05:20;;;;;;;13.30;8.40;;;9.50;98.50;;;;;;6087131;29;20036;-77
2021/03/25 20:08:30;;;;;;;9.35;7.05;;;9.10;99.00;;;;;;6118682;29;20031;-78
2021/03/25 20:11:31;;;;;;;9.13;6.78;;;9.20;93.20;;;;;;6102424;29;20059;-80
2021/03/25 20:14:32;;;;;;;12.02;7.13;;;8.90;99.90;;;;;;6072866;29;20036;-83
2021/03/25 20:17:33;;;;;;;9.00;6.88;;;9.00;99.90;;;;;;6072967;29;20193;-82
2021/03/25 20:20:34;;;;;;;9.82;7.03;;;;;;;;;;6072704;29;20049;-82
2021/03/25 20:23:35;;;;;;;11.02;7.07;;;;;;;;;;6088286;29;20020;-82
2021/03/25 20:27:31;;;;;;;14.15;6.93;;;9.10;93.40;;;;;;6088236;29;20027;-83
2021/03/25 20:30:37;;;;;;;8.80;6.78;;;8.80;87.10;;;;;;6110549;29;20028;-84
2021/03/25 20:33:41;;;;;;;10.60;6.55;;;8.70;96.10;;;;;;6089821;29;20032;-86
2021/03/25 20:36:41;;;;;;;10.10;6.93;;;8.60;96.90;;;;;;6087765;29;20067;-84
2021/03/25 20:39:42;;;;;;;12.00;6.80;;;;;;;;;;6104040;29;20036;-84
2021/03/25 20:42:43;;;;;;;10.32;6.70;;;;;;;;;;6088628;29;20030;-83
2021/03/25 20:45:46;;;;;;;12.18;7.30;;;;;;;;;;6095525;29;20412;-83
2021/03/25 20:48:46;;;;;;;;;;;8.40;97.90;;;;;;6081645;29;20032;-83
2021/03/25 20:51:47;;;;;;;16.05;8.98;;;;;;;;;;6095577;29;20290;-83
2021/03/25 20:54:48;;;;;;;12.88;7.68;;;;;;;;;;6096496;29;20420;-89
2021/03/25 20:57:49;;;;;;;28.02;14.00;;;;;;;;;;6096460;29;20365;-85
2021/03/25 21:00:52;;;;;;;14.35;7.55;;;8.50;98.30;;;;;;6083419;29;20039;-81
2021/03/25 21:03:52;;;;;;;;;;;8.50;98.30;;;;;;6086215;29;20047;-84
2021/03/25 21:06:53;;;;;;;10.95;7.95;;;;;;;;;;6085816;29;19922;-84
2021/03/25 21:09:54;;;;;;;11.23;6.43;;;;;;;;;;6102240;29;20024;-83
2021/03/25 21:12:55;;;;;;;13.60;7.43;;;;;;;;;;6085564;29;20064;-84
2021/03/25 21:15:56;;;;;;;11.07;7.50;;;8.00;91.70;;;;;;6101476;29;20054;-85
2021/03/25 21:18:57;;;;;;;10.60;7.35;;;;;;;;;;6070281;29;20032;-86
2021/03/25 21:21:58;;;;;;;10.98;7.60;;;;;;;;;;6086485;29;20021;-85
2021/03/25 21:24:59;;;;;;;13.32;8.85;;;8.10;99.90;;;;;;6085151;29;20036;-85
2021/03/25 21:27:59;;;;;;;17.02;9.65;;;7.70;93.30;;;;;;6085109;29;20036;-84
2021/03/25 21:31:01;;;;;;;11.98;7.75;;;7.90;99.90;;;;;;6069400;29;20032;-84
2021/03/25 21:34:01;;;;;;;11.40;8.13;;;7.50;99.90;;;;;;6070031;29;20032;-86
2021/03/25 21:37:02;;;;;;;12.60;7.75;;;7.60;99.90;;;;;;6069361;29;20048;-84
2021/03/25 21:40:05;;;;;;;12.57;7.85;;;7.60;99.90;;;;;;6069831;29;20047;-85
2021/03/25 21:43:06;;;;;;;13.57;8.18;;;;;;;;;;6070727;29;20961;-84
2021/03/25 21:46:09;;;;;;;11.30;8.15;;;7.60;99.90;;;;;;6100596;29;20471;-85
2021/03/25 21:49:09;;;;;;;11.75;8.02;;;7.30;99.90;;;;;;6083441;29;20036;-84
2021/03/25 21:52:10;;;;;;;13.15;8.80;;;;;;;;;;6069043;29;20543;-84
2021/03/25 21:55:11;;;;;;;12.52;8.50;;;7.10;99.90;;;;;;6100447;29;20044;-86
2021/03/25 21:58:12;;;;;;;14.55;9.30;;;;;;;;;;6092789;29;20131;-84
2021/03/25 22:01:13;;;;;;;15.07;8.85;;;;;;;;;;6084892;29;20075;-84
2021/03/25 22:04:14;;;;;;;12.82;8.38;;;6.90;99.90;;;;;;6084570;29;20035;-84
2021/03/25 22:07:15;;;;;;;14.25;8.68;;;;;;;;;;6068970;29;20032;-84
2021/03/25 22:10:15;;;;;;;12.63;8.18;;;6.70;99.90;;;;;;6100695;29;20079;-84
2021/03/25 22:13:24;;;;;;;13.40;8.63;;;6.80;96.90;;;;;;6068173;29;20036;-84
2021/03/25 22:16:24;;;;;;;12.48;8.60;;;6.80;99.90;;;;;;6069770;29;20039;-85
2021/03/25 22:19:25;;;;;;;11.35;8.93;;;;;;;;;;6084043;29;20032;-84
2021/03/25 22:22:26;;;;;;;13.13;8.30;;;7.30;99.60;;;;;;6084646;29;20036;-85
2021/03/25 22:25:27;;;;;;;13.43;9.02;;;;;;;;;;6068520;29;20091;-86
2021/03/25 22:28:30;;;;;;;12.52;8.85;;;;;;;;;;6084457;29;20032;-85
2021/03/25 22:31:31;;;;;;;12.70;9.38;;;;;;;;;;6099792;29;20076;-85
2021/03/25 22:34:32;;;;;;;14.18;9.00;;;;;;;;;;6084018;29;20082;-85
2021/03/25 22:37:32;;;;;;;16.27;9.75;;;6.60;99.90;;;;;;6099139;29;20087;-87
2021/03/25 22:40:36;;;;;;;15.32;9.55;;;9.20;99.00;;;;;;6067991;29;20032;-85
2021/03/25 22:43:38;;;;;;;14.07;9.68;;;6.80;99.90;;;;;;6068616;29;20035;-86
2021/03/25 22:46:39;;;;;;;12.65;8.93;;;;;;;;;;6067852;29;20142;-86
2021/03/25 22:49:40;;;;;;;18.60;9.88;;;;;;;;;;6084124;29;20082;-84
2021/03/25 22:52:41;;;;;;;15.00;10.38;;;;;;;;;;6083400;29;20064;-84
2021/03/25 22:55:42;;;;;;;14.40;9.55;;;;;;;;;;6083482;29;20394;-84
2021/03/25 22:58:43;;;;;;;12.57;9.07;;;7.00;99.90;;;;;;6083001;29;20690;-85
2021/03/25 23:01:59;;;;;;;14.57;9.85;;;;;;;;;;6083362;29;20036;-84
2021/03/25 23:04:59;;;;;;;14.40;9.07;;;7.00;99.90;;;;;;6099423;29;20035;-84
2021/03/25 23:08:00;;;;;;;14.93;10.10;;;;;;;;;;6067617;29;20055;-85
2021/03/25 23:11:01;;;;;;;13.98;9.90;;;7.00;99.90;;;;;;6083107;29;20028;-84
2021/03/25 23:14:02;;;;;;;15.05;9.77;;;;;;;;;;6067694;29;20449;-84
2021/03/25 23:17:05;;;;;;;15.98;9.70;;;7.10;98.20;;;;;;6082810;29;20751;-84
2021/03/25 23:20:07;;;;;;;;;;;7.50;98.60;;;;;;6083621;29;20032;-84
2021/03/25 23:23:09;;;;;;;15.05;9.73;;;7.20;99.90;;;;;;6081007;29;20002;-85
2021/03/25 23:26:11;;;;;;;14.80;9.93;;;7.30;98.30;;;;;;6067333;29;20040;-84
2021/03/25 23:29:19;;;;;;;13.10;9.65;;;;;;;;;;6067257;29;20044;-85
2021/03/25 23:32:24;;;;;;;16.20;10.07;;;7.30;97.20;;;;;;6083647;29;20032;-85
2021/03/25 23:35:31;;;;;;;15.80;10.32;;;7.40;99.90;;;;;;6098751;29;20040;-84
2021/03/25 23:38:31;;;;;;;15.35;9.40;;;7.50;99.90;;;;;;6082941;29;20467;-84
2021/03/25 23:41:33;;;;;;;14.48;9.63;;;7.40;99.30;;;;;;6067297;29;20034;-85
2021/03/25 23:44:34;;;;;;;11.77;8.13;;;;;;;;;;6086851;29;20055;-85
2021/03/25 23:47:35;;;;;;;14.98;10.20;;;7.30;99.90;;;;;;6102880;29;20283;-84
2021/03/25 23:50:36;;;;;;;16.48;9.27;;;;;;;;;;6105423;29;20047;-85
2021/03/25 23:53:37;;;;;;;13.07;9.13;;;;;;;;;;6088974;29;20353;-84
2021/03/25 23:56:39;;;;;;;11.55;8.50;;;7.30;99.90;;;;;;6105700;29;20063;-85
2021/03/25 23:59:40;;;;;;;12.02;9.38;;;;;;;;;;6074179;29;20439;-85
